Time;durP1;ratioP1;P1;durP2;ratioP2;P2;SDS_P1;SDS_P2;PMS_P1;PMS_P2;Temp;Humidity;BMP_temperature;BMP_pressure;BME280_temperature;BME280_humidity;BME280_pressure;Samples;Min_cycle;Max_cycle;Signal;HPM_P1;HPM_P2
2021/03/02 00:00:07;;;;;;;8.65;7.75;;;22.70;35.60;;;;;;5019521;28;20030;-51
2021/03/02 00:02:33;;;;;;;9.18;7.90;;;22.70;35.70;;;;;;5022537;28;20034;-54
2021/03/02 00:04:59;;;;;;;8.75;7.85;;;22.70;35.60;;;;;;5022231;28;20156;-56
2021/03/02 00:07:27;;;;;;;9.20;8.10;;;22.70;35.60;;;;;;5019790;28;20041;-53
2021/03/02 00:09:53;;;;;;;8.70;7.78;;;22.70;35.60;;;;;;5025423;28;20517;-51
2021/03/02 00:12:19;;;;;;;8.57;7.68;;;22.70;35.60;;;;;;5024672;28;20441;-52
2021/03/02 00:14:45;;;;;;;8.60;7.55;;;22.70;35.60;;;;;;5019957;28;20026;-53
2021/03/02 00:17:24;;;;;;;8.43;7.20;;;22.70;35.60;;;;;;5019147;28;20022;-54
2021/03/02 00:20:07;;;;;;;8.50;7.22;;;22.60;35.60;;;;;;5021919;28;20337;-53
2021/03/02 00:22:39;;;;;;;7.47;6.68;;;22.60;35.60;;;;;;5022435;28;20112;-59
2021/03/02 00:25:06;;;;;;;8.25;6.80;;;22.60;35.60;;;;;;5016667;28;20525;-50
2021/03/02 00:27:35;;;;;;;8.18;6.97;;;22.60;35.60;;;;;;5020743;28;20350;-54
2021/03/02 00:30:03;;;;;;;7.72;6.78;;;22.60;35.60;;;;;;5021080;28;20018;-56
2021/03/02 00:32:29;;;;;;;8.40;6.78;;;22.60;35.60;;;;;;5022642;28;20104;-52
2021/03/02 00:34:55;;;;;;;7.53;6.32;;;22.60;35.60;;;;;;5021818;28;20030;-54
2021/03/02 00:37:21;;;;;;;8.48;6.97;;;22.60;35.60;;;;;;5018537;28;20038;-53
2021/03/02 00:39:46;;;;;;;8.10;6.13;;;22.60;35.60;;;;;;5020302;28;20029;-55
2021/03/02 00:42:12;;;;;;;7.70;6.82;;;22.60;35.60;;;;;;5026702;28;20117;-58
2021/03/02 00:44:38;;;;;;;7.90;7.10;;;22.60;35.60;;;;;;5023935;28;20069;-54
2021/03/02 00:47:04;;;;;;;8.13;6.95;;;22.60;35.60;;;;;;5023839;28;20025;-55
2021/03/02 00:49:30;;;;;;;8.23;6.75;;;22.60;35.60;;;;;;5023794;28;20077;-58
2021/03/02 00:51:56;;;;;;;7.55;6.70;;;22.50;35.60;;;;;;5019650;28;20472;-57
2021/03/02 00:54:22;;;;;;;7.60;6.80;;;22.50;35.60;;;;;;5026015;28;20380;-51
2021/03/02 00:56:48;;;;;;;7.22;6.00;;;22.50;35.60;;;;;;5021095;28;20036;-52
2021/03/02 00:59:17;;;;;;;8.05;6.53;;;22.50;35.60;;;;;;5032351;28;20029;-53
2021/03/02 01:01:44;;;;;;;7.05;6.30;;;22.50;35.60;;;;;;5029275;28;20037;-55
2021/03/02 01:04:10;;;;;;;6.97;5.88;;;22.50;35.60;;;;;;5026998;28;20046;-57
2021/03/02 01:06:36;;;;;;;7.13;6.20;;;22.50;35.50;;;;;;5040913;28;20028;-54
2021/03/02 01:09:08;;;;;;;9.57;7.13;;;22.50;35.60;;;;;;5025449;28;20126;-57
2021/03/02 01:11:35;;;;;;;6.57;5.88;;;22.50;35.50;;;;;;5021819;28;20134;-54
2021/03/02 01:14:01;;;;;;;7.18;6.07;;;22.50;35.50;;;;;;5023242;28;20033;-53
2021/03/02 01:16:27;;;;;;;7.15;6.22;;;22.50;35.50;;;;;;5025290;28;20368;-59
2021/03/02 01:18:52;;;;;;;6.50;5.65;;;22.50;35.50;;;;;;5025885;28;20025;-52
2021/03/02 01:21:18;;;;;;;6.53;5.40;;;22.50;35.50;;;;;;5028789;28;20077;-58
2021/03/02 01:23:44;;;;;;;6.30;5.68;;;22.50;35.50;;;;;;5026617;28;20049;-58
2021/03/02 01:26:10;;;;;;;6.40;5.63;;;22.50;35.50;;;;;;5021582;28;20176;-54
2021/03/02 01:28:35;;;;;;;7.10;5.82;;;22.50;35.50;;;;;;5024916;28;20103;-57
2021/03/02 01:31:01;;;;;;;6.13;5.47;;;22.40;35.40;;;;;;5023618;28;20053;-58
2021/03/02 01:33:27;;;;;;;6.63;5.55;;;22.40;35.40;;;;;;5022823;28;20180;-60
2021/03/02 01:35:53;;;;;;;5.82;5.22;;;22.40;35.40;;;;;;5025942;28;20036;-58
2021/03/02 01:38:19;;;;;;;6.43;5.30;;;22.40;35.40;;;;;;5025049;28;20036;-54
2021/03/02 01:40:44;;;;;;;5.72;5.07;;;22.40;35.50;;;;;;5026745;28;20037;-55
2021/03/02 01:43:13;;;;;;;7.18;5.65;;;22.40;35.40;;;;;;5020285;28;20356;-52
2021/03/02 01:45:39;;;;;;;6.10;5.20;;;22.40;35.40;;;;;;5021732;28;20037;-57
2021/03/02 01:48:05;;;;;;;6.00;5.20;;;22.40;35.40;;;;;;5019866;28;20029;-52
2021/03/02 01:50:31;;;;;;;6.60;5.72;;;22.40;35.40;;;;;;5026242;28;20045;-51
2021/03/02 01:52:57;;;;;;;6.18;5.03;;;22.40;35.40;;;;;;5021294;28;20022;-53
2021/03/02 01:55:23;;;;;;;5.95;5.18;;;22.40;35.40;;;;;;5023440;28;20030;-53
2021/03/02 01:57:48;;;;;;;5.40;4.68;;;22.40;35.40;;;;;;5019168;28;20034;-57
2021/03/02 02:00:29;;;;;;;5.47;4.93;;;22.40;35.40;;;;;;5020701;28;20026;-53
2021/03/02 02:03:20;;;;;;;5.95;5.18;;;22.40;35.40;;;;;;5020460;28;20030;-52
2021/03/02 02:06:29;;;;;;;5.97;4.82;;;22.40;35.40;;;;;;5023736;28;20123;-54
2021/03/02 02:08:57;;;;;;;5.22;4.72;;;22.40;35.40;;;;;;4933443;29;20071;-54
2021/03/02 02:11:42;;;;;;;6.47;5.20;;;22.30;35.40;;;;;;4933313;29;20055;-56
2021/03/02 02:14:49;;;;;;;6.55;5.07;;;22.40;35.50;;;;;;4984819;28;20092;-51
2021/03/02 02:17:23;;;;;;;5.40;4.50;;;22.30;35.40;;;;;;5022429;28;20448;-51
2021/03/02 02:19:53;;;;;;;5.47;4.43;;;22.40;35.50;;;;;;5024818;28;20065;-56
2021/03/02 02:22:37;;;;;;;4.95;4.25;;;22.30;35.40;;;;;;5025384;28;20333;-52
2021/03/02 02:25:24;;;;;;;4.93;4.43;;;22.30;35.40;;;;;;5026174;28;20048;-56
2021/03/02 02:27:54;;;;;;;5.07;4.03;;;22.30;35.40;;;;;;5022551;28;20143;-62
2021/03/02 02:30:20;;;;;;;4.95;4.38;;;22.30;35.40;;;;;;5022504;28;20032;-54
2021/03/02 02:32:50;;;;;;;4.13;3.63;;;22.30;35.50;;;;;;5017488;28;20364;-56
2021/03/02 02:35:21;;;;;;;4.90;4.40;;;22.30;35.50;;;;;;5022228;28;20394;-58
2021/03/02 02:37:49;;;;;;;4.43;3.88;;;22.30;35.50;;;;;;5022116;28;20041;-56
2021/03/02 02:40:16;;;;;;;4.60;3.95;;;22.30;35.50;;;;;;5023140;28;20075;-55
2021/03/02 02:42:44;;;;;;;5.45;4.25;;;22.30;35.50;;;;;;5032371;28;20048;-57
2021/03/02 02:45:11;;;;;;;4.63;3.97;;;22.30;35.40;;;;;;5028105;28;21632;-58
2021/03/02 02:47:38;;;;;;;4.55;3.70;;;22.30;35.40;;;;;;5023282;28;20115;-56
2021/03/02 02:50:07;;;;;;;8.65;3.80;;;22.30;35.40;;;;;;5024191;28;20038;-58
2021/03/02 02:52:34;;;;;;;3.97;3.42;;;22.30;35.40;;;;;;5024810;28;20021;-57
2021/03/02 02:55:02;;;;;;;5.50;3.45;;;22.30;35.40;;;;;;5022747;28;20441;-59
2021/03/02 02:57:33;;;;;;;5.45;3.95;;;22.30;35.40;;;;;;5023115;28;20038;-57
2021/03/02 03:00:02;;;;;;;3.97;3.58;;;22.30;35.40;;;;;;5022721;28;20116;-54
2021/03/02 03:02:32;;;;;;;3.67;3.20;;;22.30;35.40;;;;;;5018433;28;20061;-58
2021/03/02 03:05:08;;;;;;;4.15;3.55;;;22.20;35.30;;;;;;5022159;28;20080;-58
2021/03/02 03:07:55;;;;;;;5.80;3.45;;;22.30;35.40;;;;;;5020981;28;20030;-55
2021/03/02 03:10:26;;;;;;;4.40;3.80;;;22.20;35.40;;;;;;5022477;28;20030;-60
2021/03/02 03:12:59;;;;;;;4.57;3.70;;;22.20;35.30;;;;;;5022843;28;20433;-58
2021/03/02 03:15:26;;;;;;;4.18;3.63;;;22.20;35.30;;;;;;5020864;28;20038;-55
2021/03/02 03:17:57;;;;;;;3.80;3.40;;;22.20;35.30;;;;;;5023262;28;20080;-58
2021/03/02 03:20:23;;;;;;;4.00;3.55;;;22.20;35.30;;;;;;5017687;28;20486;-54
2021/03/02 03:22:50;;;;;;;4.35;3.83;;;22.20;35.30;;;;;;5021922;28;20038;-58
2021/03/02 03:25:17;;;;;;;3.95;3.40;;;22.20;35.30;;;;;;5019077;28;20022;-55
2021/03/02 03:27:51;;;;;;;4.28;3.70;;;22.20;35.30;;;;;;5025735;28;20037;-59
2021/03/02 03:30:17;;;;;;;;;;;22.20;35.30;;;;;;5019481;28;20137;-60
2021/03/02 03:32:46;;;;;;;3.20;2.90;;;22.20;35.30;;;;;;5020935;28;19936;-58
2021/03/02 03:35:12;;;;;;;3.88;3.08;;;22.20;35.40;;;;;;5026943;28;20029;-60
2021/03/02 03:37:39;;;;;;;4.22;3.33;;;22.10;35.30;;;;;;5023175;28;20396;-60
2021/03/02 03:40:05;;;;;;;3.70;3.40;;;22.20;35.40;;;;;;5021610;28;20026;-56
2021/03/02 03:42:31;;;;;;;3.95;3.20;;;22.20;35.30;;;;;;5021801;28;20021;-57
2021/03/02 03:44:56;;;;;;;3.85;3.40;;;22.20;35.30;;;;;;5030442;28;20329;-56
2021/03/02 03:47:22;;;;;;;4.28;3.30;;;22.10;35.30;;;;;;5024659;28;20038;-58
2021/03/02 03:49:48;;;;;;;3.90;3.50;;;22.10;35.30;;;;;;5022898;28;20069;-56
2021/03/02 03:52:17;;;;;;;3.45;3.05;;;22.20;35.30;;;;;;5020847;28;20027;-57
2021/03/02 03:54:45;;;;;;;3.67;3.28;;;22.20;35.30;;;;;;5017122;28;20402;-57
2021/03/02 03:57:12;;;;;;;2.97;2.67;;;22.10;35.30;;;;;;5019659;28;20430;-58
2021/03/02 03:59:39;;;;;;;3.35;3.05;;;22.10;35.30;;;;;;5018192;28;20034;-57
2021/03/02 04:02:07;;;;;;;3.97;3.08;;;22.10;35.30;;;;;;5020443;28;20038;-56
2021/03/02 04:04:34;;;;;;;3.13;2.70;;;22.10;35.20;;;;;;5020800;28;20033;-58
2021/03/02 04:07:00;;;;;;;3.33;3.03;;;22.10;35.20;;;;;;5023490;28;20033;-56
2021/03/02 04:09:27;;;;;;;3.67;3.05;;;22.10;35.20;;;;;;5019024;28;20084;-55
2021/03/02 04:11:55;;;;;;;3.60;2.92;;;22.10;35.20;;;;;;5019658;28;20037;-59
2021/03/02 04:14:21;;;;;;;3.55;2.83;;;22.10;35.20;;;;;;5020543;28;20364;-60
2021/03/02 04:16:46;;;;;;;4.05;3.10;;;22.10;35.20;;;;;;5017789;28;20463;-57
2021/03/02 04:19:12;;;;;;;3.22;2.90;;;22.10;35.20;;;;;;5026109;28;20151;-56
2021/03/02 04:21:38;;;;;;;3.65;2.90;;;22.00;35.20;;;;;;5024887;28;20120;-59
2021/03/02 04:24:04;;;;;;;3.13;2.83;;;22.10;35.20;;;;;;5023651;28;20128;-57
2021/03/02 04:26:30;;;;;;;3.88;3.00;;;22.10;35.20;;;;;;5025812;28;20033;-58
2021/03/02 04:28:59;;;;;;;4.25;3.28;;;22.10;35.80;;;;;;5028639;28;20449;-56
2021/03/02 04:31:24;;;;;;;2.88;2.42;;;22.10;35.20;;;;;;5019739;28;20049;-54
2021/03/02 04:33:50;;;;;;;3.28;2.67;;;22.10;35.20;;;;;;5023774;28;20040;-58
2021/03/02 04:36:16;;;;;;;3.35;2.88;;;22.10;35.20;;;;;;5019184;28;20064;-58
2021/03/02 04:38:42;;;;;;;2.70;2.47;;;22.00;35.10;;;;;;5024902;28;20041;-53
2021/03/02 04:41:07;;;;;;;3.30;2.50;;;22.10;35.20;;;;;;5020123;28;20049;-56
2021/03/02 04:43:33;;;;;;;3.25;2.95;;;22.00;35.10;;;;;;5028851;28;20046;-58
2021/03/02 04:45:59;;;;;;;3.17;2.60;;;22.10;35.20;;;;;;5023031;28;20044;-55
2021/03/02 04:48:25;;;;;;;3.55;2.90;;;22.00;35.20;;;;;;5028230;28;20044;-54
2021/03/02 04:50:50;;;;;;;2.97;2.50;;;22.00;35.10;;;;;;5022261;28;20045;-57
2021/03/02 04:53:16;;;;;;;3.90;2.45;;;22.10;35.20;;;;;;5024756;28;20025;-57
2021/03/02 04:55:42;;;;;;;3.28;2.58;;;22.00;35.10;;;;;;5022861;28;20349;-58
2021/03/02 04:58:08;;;;;;;2.92;2.47;;;22.00;35.10;;;;;;5026363;28;20440;-58
2021/03/02 05:00:34;;;;;;;2.78;2.50;;;22.00;35.20;;;;;;5022159;28;20383;-58
2021/03/02 05:02:59;;;;;;;3.60;2.40;;;22.00;35.80;;;;;;5028003;28;20041;-56
2021/03/02 05:05:25;;;;;;;2.40;2.20;;;22.00;35.10;;;;;;5023056;28;20091;-57
2021/03/02 05:07:53;;;;;;;2.85;2.28;;;22.00;35.10;;;;;;5022652;28;20022;-57
2021/03/02 05:10:19;;;;;;;2.63;2.35;;;22.00;35.10;;;;;;5024482;28;20065;-58
2021/03/02 05:12:45;;;;;;;2.80;2.22;;;22.00;35.10;;;;;;5025664;28;20350;-57
2021/03/02 05:15:11;;;;;;;2.83;2.53;;;22.00;35.20;;;;;;5028819;28;20391;-56
2021/03/02 05:17:37;;;;;;;2.45;2.13;;;22.00;35.20;;;;;;5026421;28;20048;-56
2021/03/02 05:20:04;;;;;;;2.67;2.33;;;22.00;35.20;;;;;;5023005;28;20021;-55
2021/03/02 05:22:29;;;;;;;2.90;2.45;;;22.00;35.20;;;;;;5020973;28;20030;-58
2021/03/02 05:24:55;;;;;;;2.60;2.20;;;21.90;35.10;;;;;;5023071;28;20030;-57
2021/03/02 05:27:21;;;;;;;2.70;2.30;;;21.90;35.10;;;;;;5023317;28;20494;-58
2021/03/02 05:29:47;;;;;;;2.63;2.08;;;22.00;35.20;;;;;;5029018;28;20040;-59
2021/03/02 05:32:13;;;;;;;3.30;2.40;;;22.00;35.10;;;;;;5023945;28;20053;-58
2021/03/02 05:34:38;;;;;;;2.40;2.00;;;22.00;35.10;;;;;;5018881;28;20026;-59
2021/03/02 05:37:04;;;;;;;2.58;2.00;;;21.90;35.10;;;;;;5025402;28;20476;-54
2021/03/02 05:39:30;;;;;;;2.40;2.10;;;22.00;35.20;;;;;;5020614;28;20022;-55
2021/03/02 05:41:56;;;;;;;2.78;2.40;;;21.90;35.10;;;;;;5026749;28;20038;-60
2021/03/02 05:44:22;;;;;;;2.45;1.90;;;22.00;35.20;;;;;;5026786;28;20045;-58
2021/03/02 05:46:51;;;;;;;2.90;2.30;;;21.90;35.10;;;;;;5024842;28;20028;-60
2021/03/02 05:49:17;;;;;;;3.03;2.20;;;21.90;35.10;;;;;;5034974;28;20071;-52
2021/03/02 05:51:43;;;;;;;2.67;2.20;;;21.90;35.10;;;;;;5029435;28;20524;-59
2021/03/02 05:54:10;;;;;;;3.22;2.63;;;21.90;35.10;;;;;;5023949;28;20025;-54
2021/03/02 05:56:38;;;;;;;2.20;2.00;;;21.90;35.10;;;;;;5024278;28;20417;-55
2021/03/02 05:59:05;;;;;;;2.53;2.20;;;21.90;35.10;;;;;;5027271;28;20039;-51
2021/03/02 06:01:31;;;;;;;2.47;2.00;;;21.90;35.10;;;;;;5030312;28;20029;-53
2021/03/02 06:03:57;;;;;;;2.08;1.88;;;21.90;35.10;;;;;;5028343;28;20069;-54
2021/03/02 06:06:23;;;;;;;2.25;2.00;;;21.90;35.10;;;;;;5025205;28;20029;-52
2021/03/02 06:08:48;;;;;;;1.85;1.63;;;21.90;35.10;;;;;;5027561;28;20084;-51
2021/03/02 06:11:29;;;;;;;2.70;2.05;;;21.90;35.10;;;;;;5027144;28;20087;-55
2021/03/02 06:14:24;;;;;;;2.08;1.77;;;21.90;35.00;;;;;;5025213;28;20029;-50
2021/03/02 06:16:50;;;;;;;;;;;21.90;35.00;;;;;;5029076;28;20026;-59
2021/03/02 06:19:18;;;;;;;1.90;1.70;;;21.90;35.10;;;;;;5020923;28;20336;-60
2021/03/02 06:21:44;;;;;;;2.22;1.92;;;21.80;35.10;;;;;;5020114;28;20348;-56
2021/03/02 06:24:10;;;;;;;1.85;1.58;;;21.90;35.10;;;;;;5023890;28;20095;-58
2021/03/02 06:26:37;;;;;;;2.90;2.30;;;21.80;35.10;;;;;;5027987;28;20022;-57
2021/03/02 06:29:14;;;;;;;2.67;2.03;;;21.80;35.10;;;;;;5025410;28;20369;-52
2021/03/02 06:31:45;;;;;;;2.35;1.80;;;21.80;35.10;;;;;;5021666;28;20084;-53
2021/03/02 06:34:17;;;;;;;1.98;1.73;;;21.80;35.10;;;;;;5028428;28;20044;-50
2021/03/02 06:36:55;;;;;;;2.25;1.92;;;21.90;35.20;;;;;;5025510;28;20087;-50
2021/03/02 06:39:28;;;;;;;2.17;1.98;;;21.80;35.10;;;;;;5021398;28;20026;-54
2021/03/02 06:42:15;;;;;;;2.03;1.75;;;21.80;35.10;;;;;;5021825;28;20033;-49
2021/03/02 06:44:43;;;;;;;2.00;1.80;;;21.80;35.10;;;;;;5023116;28;20441;-59
2021/03/02 06:47:13;;;;;;;2.08;1.70;;;21.80;35.10;;;;;;5023992;28;20037;-55
2021/03/02 06:49:44;;;;;;;1.98;1.75;;;21.80;35.20;;;;;;5025296;28;20089;-59
2021/03/02 06:52:14;;;;;;;2.60;1.70;;;21.80;35.10;;;;;;5029134;28;20488;-58
2021/03/02 06:54:40;;;;;;;2.72;1.85;;;21.80;35.10;;;;;;5017221;28;20373;-56
2021/03/02 06:57:06;;;;;;;1.95;1.65;;;21.80;35.10;;;;;;5025832;28;20021;-50
2021/03/02 06:59:32;;;;;;;2.45;2.03;;;21.80;35.10;;;;;;5024793;28;20039;-57
2021/03/02 07:01:58;;;;;;;2.30;2.00;;;21.80;35.20;;;;;;5024315;28;20030;-58
2021/03/02 07:04:28;;;;;;;1.92;1.70;;;21.80;35.20;;;;;;5022900;28;20080;-58
2021/03/02 07:07:04;;;;;;;1.63;1.52;;;21.80;35.10;;;;;;5027703;28;20076;-55
2021/03/02 07:09:29;;;;;;;2.05;1.85;;;21.80;35.20;;;;;;5017790;28;20061;-56
2021/03/02 07:11:57;;;;;;;2.80;1.70;;;21.80;35.20;;;;;;5029043;28;20065;-56
2021/03/02 07:14:24;;;;;;;2.05;1.58;;;21.80;35.20;;;;;;5021259;28;20064;-57
2021/03/02 07:16:52;;;;;;;2.00;1.80;;;21.80;35.20;;;;;;5023364;28;20022;-59
2021/03/02 07:19:22;;;;;;;1.90;1.70;;;21.80;35.20;;;;;;5030279;28;20043;-55
2021/03/02 07:21:53;;;;;;;1.63;1.50;;;21.80;35.20;;;;;;5025905;28;20026;-58
2021/03/02 07:24:24;;;;;;;2.95;2.08;;;21.80;35.20;;;;;;5026820;28;20046;-59
2021/03/02 07:26:53;;;;;;;1.75;1.60;;;21.80;35.30;;;;;;5021667;28;20335;-58
2021/03/02 07:29:18;;;;;;;2.08;1.70;;;21.80;35.30;;;;;;5023850;28;20365;-57
2021/03/02 07:31:45;;;;;;;1.95;1.75;;;21.80;35.30;;;;;;5017703;28;20041;-59
2021/03/02 07:34:11;;;;;;;1.95;1.73;;;21.80;35.30;;;;;;5023070;28;20112;-56
2021/03/02 07:36:42;;;;;;;2.72;2.20;;;21.80;35.30;;;;;;5023116;28;20049;-58
2021/03/02 07:39:17;;;;;;;2.38;1.80;;;21.70;35.30;;;;;;5022621;28;20347;-61
2021/03/02 07:41:44;;;;;;;2.33;2.03;;;21.80;35.50;;;;;;5024247;28;20428;-58
2021/03/02 07:44:10;;;;;;;4.07;1.95;;;21.80;35.50;;;;;;5024024;28;20069;-57
2021/03/02 07:46:41;;;;;;;2.28;1.83;;;21.80;35.50;;;;;;5020258;28;20036;-57
2021/03/02 07:49:22;;;;;;;2.67;1.80;;;21.90;35.50;;;;;;5020288;28;20037;-56
2021/03/02 07:52:00;;;;;;;2.53;1.60;;;21.90;35.30;;;;;;5020923;28;20050;-54
2021/03/02 07:54:33;;;;;;;2.17;1.70;;;22.00;35.20;;;;;;5031325;28;20043;-57
2021/03/02 07:57:18;;;;;;;1.92;1.70;;;22.10;35.10;;;;;;5027147;28;20111;-60
2021/03/02 08:00:20;;;;;;;2.22;1.63;;;22.10;34.90;;;;;;5023590;28;20388;-57
2021/03/02 08:03:25;;;;;;;3.28;1.90;;;22.30;34.80;;;;;;5028769;28;20117;-59
2021/03/02 08:05:59;;;;;;;1.75;1.38;;;22.30;34.60;;;;;;4984670;28;20053;-59
2021/03/02 08:08:25;;;;;;;2.73;1.93;;;22.40;34.60;;;;;;4983740;28;20064;-54
2021/03/02 08:11:03;;;;;;;2.72;1.77;;;22.50;34.60;;;;;;5005747;28;20033;-60
2021/03/02 08:13:43;;;;;;;4.15;1.65;;;22.50;34.40;;;;;;5023411;28;20017;-58
2021/03/02 08:16:10;;;;;;;2.47;1.80;;;22.60;34.40;;;;;;5026499;28;20041;-60
2021/03/02 08:18:38;;;;;;;3.35;1.90;;;22.70;34.30;;;;;;5026361;28;20348;-61
2021/03/02 08:21:10;;;;;;;3.50;1.83;;;22.70;34.30;;;;;;5026801;28;20449;-60
2021/03/02 08:23:56;;;;;;;2.10;1.58;;;22.80;34.20;;;;;;5022285;28;20380;-57
2021/03/02 08:26:35;;;;;;;1.92;1.65;;;22.90;34.10;;;;;;5028120;28;20025;-57
2021/03/02 08:29:09;;;;;;;3.28;2.10;;;22.90;34.10;;;;;;5018396;28;20097;-57
2021/03/02 08:31:37;;;;;;;1.92;1.67;;;23.00;34.10;;;;;;5021925;28;20041;-57
2021/03/02 08:34:06;;;;;;;2.30;1.63;;;23.00;34.00;;;;;;5028236;28;20029;-60
2021/03/02 08:36:33;;;;;;;3.35;1.90;;;23.00;34.00;;;;;;5021152;28;20125;-56
2021/03/02 08:38:59;;;;;;;3.65;1.67;;;23.10;33.90;;;;;;5026210;28;20033;-59
2021/03/02 08:41:33;;;;;;;2.45;1.77;;;23.10;33.90;;;;;;5026918;28;20599;-58
2021/03/02 08:44:00;;;;;;;2.50;1.95;;;23.10;33.80;;;;;;5022278;28;20536;-56
2021/03/02 08:46:35;;;;;;;2.35;1.83;;;23.20;33.70;;;;;;5027020;28;20116;-57
2021/03/02 08:49:12;;;;;;;2.65;1.98;;;23.20;33.60;;;;;;5026651;28;20415;-59
2021/03/02 08:51:39;;;;;;;2.03;1.67;;;23.20;33.40;;;;;;5029114;28;20373;-59
2021/03/02 08:54:06;;;;;;;2.05;1.75;;;23.20;33.50;;;;;;5030213;28;20018;-58
2021/03/02 08:56:33;;;;;;;2.63;1.63;;;23.20;33.30;;;;;;5028787;28;20044;-58
2021/03/02 08:59:02;;;;;;;2.60;1.88;;;23.20;33.30;;;;;;5029051;28;20117;-55
2021/03/02 09:01:30;;;;;;;2.70;2.08;;;23.20;33.30;;;;;;5027997;28;20142;-53
2021/03/02 09:04:17;;;;;;;2.97;1.77;;;23.20;33.30;;;;;;5029998;28;20037;-56
2021/03/02 09:06:48;;;;;;;3.28;1.88;;;23.20;33.30;;;;;;5028033;28;20092;-55
2021/03/02 09:09:19;;;;;;;2.88;1.90;;;23.20;33.90;;;;;;5029071;28;20041;-57
2021/03/02 09:11:55;;;;;;;5.30;2.40;;;23.20;33.30;;;;;;5025578;28;20112;-57
2021/03/02 09:14:24;;;;;;;3.78;2.53;;;23.20;33.40;;;;;;5025614;28;20041;-61
2021/03/02 09:17:02;;;;;;;3.10;2.30;;;23.20;33.50;;;;;;5024526;28;20033;-55
2021/03/02 09:19:33;;;;;;;3.67;2.58;;;23.20;33.50;;;;;;5024799;28;20045;-58
2021/03/02 09:22:01;;;;;;;2.50;2.10;;;23.20;33.60;;;;;;5027283;28;20076;-55
2021/03/02 09:24:30;;;;;;;4.05;2.40;;;23.20;33.60;;;;;;5026489;28;20045;-59
2021/03/02 09:27:03;;;;;;;3.50;2.40;;;23.20;33.60;;;;;;5022042;28;20373;-55
2021/03/02 09:29:33;;;;;;;3.10;2.38;;;23.20;33.70;;;;;;5024408;28;20044;-59
2021/03/02 09:32:03;;;;;;;2.65;1.95;;;23.20;33.70;;;;;;5023877;28;20052;-55
2021/03/02 09:34:32;;;;;;;2.65;2.10;;;23.20;33.80;;;;;;5023434;28;20357;-59
2021/03/02 09:37:06;;;;;;;3.97;2.10;;;23.20;33.80;;;;;;5023373;28;20029;-56
2021/03/02 09:39:32;;;;;;;2.75;2.30;;;23.20;33.80;;;;;;5024659;28;20115;-57
2021/03/02 09:41:58;;;;;;;3.58;2.38;;;23.20;33.90;;;;;;5023289;28;20029;-59
2021/03/02 09:44:24;;;;;;;2.70;2.03;;;23.20;33.90;;;;;;5023909;28;20046;-60
2021/03/02 09:46:51;;;;;;;3.58;2.10;;;23.20;33.90;;;;;;5025268;28;20228;-56
2021/03/02 09:49:35;;;;;;;2.83;2.40;;;23.20;33.90;;;;;;5024732;28;20044;-58
2021/03/02 09:52:02;;;;;;;2.95;2.47;;;23.20;33.90;;;;;;5025550;28;20432;-56
2021/03/02 09:54:28;;;;;;;2.83;2.30;;;23.20;34.00;;;;;;5025195;28;20067;-58
2021/03/02 09:57:04;;;;;;;3.42;2.08;;;23.20;34.00;;;;;;5023349;28;20365;-57
2021/03/02 09:59:31;;;;;;;3.28;2.40;;;23.20;34.00;;;;;;5026194;28;20112;-60
2021/03/02 10:02:00;;;;;;;3.20;2.20;;;23.20;34.00;;;;;;5024244;28;20056;-60
2021/03/02 10:04:26;;;;;;;2.60;2.05;;;23.20;34.10;;;;;;5021820;28;20132;-59
2021/03/02 10:07:08;;;;;;;3.22;2.28;;;23.20;34.10;;;;;;5024204;28;20113;-57
2021/03/02 10:09:34;;;;;;;3.40;2.10;;;23.20;34.10;;;;;;5023573;28;20053;-55
2021/03/02 10:12:13;;;;;;;2.55;2.20;;;23.30;34.20;;;;;;5023940;28;20049;-58
2021/03/02 10:14:41;;;;;;;4.40;2.38;;;23.20;34.10;;;;;;5021687;28;20040;-57
2021/03/02 10:17:07;;;;;;;2.55;2.03;;;23.30;34.10;;;;;;5023638;28;20433;-55
2021/03/02 10:19:34;;;;;;;2.35;1.95;;;23.20;34.10;;;;;;5025889;28;20042;-57
2021/03/02 10:22:02;;;;;;;2.25;2.00;;;23.30;34.20;;;;;;5024091;28;20033;-59
2021/03/02 10:24:34;;;;;;;2.42;2.03;;;23.20;34.10;;;;;;5021735;28;20492;-58
2021/03/02 10:27:09;;;;;;;2.20;2.00;;;23.30;34.20;;;;;;5023337;28;20403;-58
2021/03/02 10:29:35;;;;;;;2.78;2.30;;;23.30;34.20;;;;;;5022876;28;20452;-56
2021/03/02 10:32:02;;;;;;;2.85;2.10;;;23.30;34.20;;;;;;5027268;28;20026;-58
2021/03/02 10:34:33;;;;;;;2.83;2.13;;;23.30;34.20;;;;;;5028276;28;20399;-55
2021/03/02 10:37:02;;;;;;;3.15;2.08;;;23.30;34.20;;;;;;5024405;28;20111;-58
2021/03/02 10:39:28;;;;;;;2.42;1.95;;;23.30;34.20;;;;;;5022830;28;20018;-59
2021/03/02 10:41:54;;;;;;;2.50;1.92;;;23.30;34.30;;;;;;5023183;28;20025;-54
2021/03/02 10:44:20;;;;;;;2.92;2.20;;;23.30;34.30;;;;;;5023843;28;20041;-59
2021/03/02 10:46:47;;;;;;;2.65;2.15;;;23.40;34.30;;;;;;5022233;28;20029;-53
2021/03/02 10:49:13;;;;;;;3.00;2.45;;;23.40;34.30;;;;;;5023900;28;20022;-55
2021/03/02 10:51:39;;;;;;;3.00;2.40;;;23.40;34.40;;;;;;5019939;28;20065;-58
2021/03/02 10:54:05;;;;;;;2.72;2.25;;;23.40;34.40;;;;;;5017697;28;20030;-55
2021/03/02 10:56:31;;;;;;;3.47;1.85;;;23.40;34.40;;;;;;5023780;28;20433;-57
2021/03/02 10:58:58;;;;;;;2.58;2.00;;;23.40;34.50;;;;;;5023675;28;20341;-57
2021/03/02 11:01:24;;;;;;;2.35;1.80;;;23.40;34.50;;;;;;5027263;28;20101;-59
2021/03/02 11:03:51;;;;;;;2.63;1.63;;;23.40;34.60;;;;;;5022996;28;20040;-56
2021/03/02 11:06:19;;;;;;;2.30;1.77;;;23.40;34.60;;;;;;5022019;28;20033;-58
2021/03/02 11:08:45;;;;;;;1.77;1.60;;;23.40;34.70;;;;;;5024467;28;20033;-60
2021/03/02 11:11:12;;;;;;;3.55;2.33;;;23.40;34.70;;;;;;5024169;28;20029;-59
2021/03/02 11:13:39;;;;;;;2.45;2.00;;;23.40;34.70;;;;;;5024868;28;20385;-55
2021/03/02 11:16:05;;;;;;;2.80;1.80;;;23.50;34.80;;;;;;5024209;28;20042;-56
2021/03/02 11:18:31;;;;;;;2.47;1.83;;;23.50;34.80;;;;;;5026565;28;20026;-57
2021/03/02 11:20:57;;;;;;;2.42;1.70;;;23.50;34.80;;;;;;5021093;28;20057;-56
2021/03/02 11:23:22;;;;;;;1.70;1.60;;;23.50;34.80;;;;;;5023382;28;20046;-56
2021/03/02 11:25:48;;;;;;;1.90;1.70;;;23.50;34.90;;;;;;5020617;28;20030;-55
2021/03/02 11:28:15;;;;;;;2.17;1.98;;;23.60;34.90;;;;;;5023162;28;20138;-54
2021/03/02 11:30:41;;;;;;;2.50;1.80;;;23.50;34.80;;;;;;5028053;28;20053;-59
2021/03/02 11:33:11;;;;;;;3.60;1.85;;;23.60;34.80;;;;;;5032249;28;20037;-55
2021/03/02 11:35:38;;;;;;;1.88;1.63;;;23.50;34.70;;;;;;5034503;28;20048;-52
2021/03/02 11:38:04;;;;;;;2.60;2.00;;;23.50;34.60;;;;;;5032724;28;20032;-58
2021/03/02 11:40:31;;;;;;;2.58;1.73;;;23.50;34.50;;;;;;5023792;28;20034;-57
2021/03/02 11:42:58;;;;;;;1.77;1.60;;;23.50;34.40;;;;;;5027343;28;20548;-58
2021/03/02 11:45:28;;;;;;;2.00;1.80;;;23.50;34.40;;;;;;5034034;28;20033;-58
2021/03/02 11:47:55;;;;;;;2.08;1.77;;;23.40;34.20;;;;;;5034460;28;20445;-56
2021/03/02 11:50:21;;;;;;;2.00;1.58;;;23.40;34.20;;;;;;5033896;28;20041;-58
2021/03/02 11:52:48;;;;;;;3.22;1.63;;;23.40;34.10;;;;;;5034052;28;20088;-57
2021/03/02 11:55:15;;;;;;;5.90;1.65;;;23.40;34.00;;;;;;5034114;28;20029;-56
2021/03/02 11:57:40;;;;;;;1.90;1.40;;;23.40;34.00;;;;;;5034224;28;20036;-57
2021/03/02 12:00:16;;;;;;;4.15;1.90;;;23.30;33.90;;;;;;5032946;28;20033;-59
2021/03/02 12:02:43;;;;;;;2.20;1.65;;;23.40;34.20;;;;;;5034221;28;20037;-58
2021/03/02 12:05:10;;;;;;;2.63;1.63;;;23.40;34.30;;;;;;5034261;28;20103;-56
2021/03/02 12:07:36;;;;;;;2.35;1.85;;;23.40;34.40;;;;;;5034147;28;20033;-55
2021/03/02 12:10:06;;;;;;;4.25;2.30;;;23.40;34.40;;;;;;5033968;28;20333;-59
2021/03/02 12:12:31;;;;;;;2.60;1.88;;;23.40;34.40;;;;;;5033000;28;20371;-54
2021/03/02 12:14:58;;;;;;;3.70;1.83;;;23.40;34.40;;;;;;5033327;28;20142;-54
2021/03/02 12:17:27;;;;;;;2.05;1.63;;;23.50;34.40;;;;;;5033369;28;20444;-56
2021/03/02 12:19:53;;;;;;;2.60;1.65;;;23.50;34.40;;;;;;5030201;28;20037;-55
2021/03/02 12:22:19;;;;;;;2.28;1.75;;;23.50;34.30;;;;;;5032781;28;20037;-56
2021/03/02 12:24:44;;;;;;;3.05;1.90;;;23.50;34.20;;;;;;5032809;28;20056;-53
2021/03/02 12:27:10;;;;;;;4.07;1.80;;;23.50;34.10;;;;;;5033533;28;20029;-53
2021/03/02 12:29:36;;;;;;;2.83;2.08;;;23.50;34.00;;;;;;5033937;28;20098;-58
2021/03/02 12:32:02;;;;;;;2.40;2.08;;;23.50;33.90;;;;;;5033089;28;20116;-55
2021/03/02 12:34:27;;;;;;;2.45;1.98;;;23.60;33.90;;;;;;5034069;28;20078;-56
2021/03/02 12:36:55;;;;;;;3.88;2.17;;;23.50;33.70;;;;;;5034869;28;20345;-57
2021/03/02 12:39:21;;;;;;;4.18;2.20;;;23.50;33.70;;;;;;5036001;28;20045;-58
2021/03/02 12:41:47;;;;;;;3.70;2.30;;;23.50;33.50;;;;;;5037378;28;20029;-54
2021/03/02 12:44:13;;;;;;;3.40;2.30;;;23.50;33.50;;;;;;5035764;28;20128;-56
2021/03/02 12:46:38;;;;;;;2.72;2.15;;;23.60;33.50;;;;;;5036644;28;20120;-54
2021/03/02 12:49:04;;;;;;;3.63;2.53;;;23.60;33.40;;;;;;5033801;28;20041;-54
2021/03/02 12:51:31;;;;;;;2.20;1.83;;;23.60;33.40;;;;;;5021586;28;20182;-56
2021/03/02 12:53:56;;;;;;;2.83;2.13;;;23.60;33.20;;;;;;5016711;28;20092;-58
2021/03/02 12:56:22;;;;;;;2.67;2.08;;;23.60;33.10;;;;;;5017204;28;20042;-50